Independence of the Seas — C6WW4 — position and weather

sailwx.info

Track history (hours):
 
Tides and Currents Weather Stations Pressure Air Temp Water Temp Dewpoint Dewpoint Depression Visibility Wind Speed Wind Dir Waves Ship Positions

Independence of the Seas

Last reported at 2015-Sep-04 01:27 UTC. Time now 2015-Sep-05 01:06 UTC.
Position N 18°11' W 063°33'.

Length 339 m; draft 8.8 m.

Type: Passenger vessel. MMSI: 309374000.

Date/timePositionNaut miles runAvg speedWind from/ knotsBaromVisibWave heightAir tempDewpointWater temp
2015-Sep-04 01:27N 18°11' W 063°33'1618.2
2015-Sep-04 00:33N 17°57' W 063°23'1918.2
2015-Sep-03 23:31N 17°42' W 063°12'11 0.5
2015-Sep-03 00:26N 17°50' W 063°04'910.6
2015-Sep-02 23:33N 17°59' W 063°05'2 0.2
2015-Sep-02 13:33N 18°00' W 063°04'1717.3
2015-Sep-02 12:33N 18°02' W 063°23'1817.8
2015-Sep-02 11:32N 18°04' W 063°41'6117.9
2015-Sep-02 08:09N 18°10' W 064°45'  
2015-Aug-30 21:14N 26°08' W 079°37'1218.3
2015-Aug-30 20:34N 26°06' W 079°51'1211.8
2015-Aug-30 19:33N 26°06' W 080°04'3 3.0
2015-Aug-30 18:27N 26°05' W 080°07'0 0.0
2015-Aug-30 17:30N 26°05' W 080°07'0 0.0
2015-Aug-30 16:30N 26°05' W 080°07'0 0.0
2015-Aug-30 15:33N 26°05' W 080°07'0 0.0
2015-Aug-30 14:33N 26°05' W 080°07'0 0.0
2015-Aug-30 13:33N 26°05' W 080°07'0 0.0
2015-Aug-30 12:30N 26°05' W 080°07'0 0.0
2015-Aug-30 11:33N 26°05' W 080°07'0 0.0
2015-Aug-30 10:30N 26°05' W 080°07'0 0.0
2015-Aug-30 09:33N 26°05' W 080°07'4 4.2
2015-Aug-30 08:34N 26°05' W 080°03'8 8.4
2015-Aug-30 07:34N 25°57' W 079°59'1313.0
2015-Aug-30 06:34N 25°44' W 079°59'1413.7
2015-Aug-30 05:34N 25°31' W 079°58'49016.9
2015-Aug-29 00:33N 20°30' W 086°59'1 1.4
2015-Aug-28 23:31N 20°29' W 086°59'0 0.0
2015-Aug-28 22:31N 20°29' W 086°59'0 0.0
2015-Aug-28 21:31N 20°29' W 086°59'0 0.0
2015-Aug-28 20:10N 20°29' W 086°59'0 0.0
2015-Aug-28 19:31N 20°29' W 086°59'0 0.0
2015-Aug-28 17:25N 20°29' W 086°59'0 0.0
2015-Aug-28 16:28N 20°29' W 086°59'0 0.0
2015-Aug-28 15:31N 20°29' W 086°59'0 0.2
2015-Aug-28 14:34N 20°29' W 086°59'  
Track history (hours):
 
Tides and Currents Weather Stations Pressure Air Temp Water Temp Dewpoint Dewpoint Depression Visibility Wind Speed Wind Dir Waves Ship Positions

Independence of the Seas

Last reported at 2015-Sep-04 01:27 UTC. Time now 2015-Sep-05 01:06 UTC.
Position N 18°11' W 063°33'.

Length 339 m; draft 8.8 m.

Type: Passenger vessel. MMSI: 309374000.

Date/timePositionNaut miles runAvg speedWind from/ knotsBaromVisibWave heightAir tempDewpointWater temp
2015-Sep-04 01:27N 18°11' W 063°33'1618.2
2015-Sep-04 00:33N 17°57' W 063°23'1918.2
2015-Sep-03 23:31N 17°42' W 063°12'11 0.5
2015-Sep-03 00:26N 17°50' W 063°04'910.6
2015-Sep-02 23:33N 17°59' W 063°05'2 0.2
2015-Sep-02 13:33N 18°00' W 063°04'1717.3
2015-Sep-02 12:33N 18°02' W 063°23'1817.8
2015-Sep-02 11:32N 18°04' W 063°41'6117.9
2015-Sep-02 08:09N 18°10' W 064°45'  
2015-Aug-30 21:14N 26°08' W 079°37'1218.3
2015-Aug-30 20:34N 26°06' W 079°51'1211.8
2015-Aug-30 19:33N 26°06' W 080°04'3 3.0
2015-Aug-30 18:27N 26°05' W 080°07'0 0.0
2015-Aug-30 17:30N 26°05' W 080°07'0 0.0
2015-Aug-30 16:30N 26°05' W 080°07'0 0.0
2015-Aug-30 15:33N 26°05' W 080°07'0 0.0
2015-Aug-30 14:33N 26°05' W 080°07'0 0.0
2015-Aug-30 13:33N 26°05' W 080°07'0 0.0
2015-Aug-30 12:30N 26°05' W 080°07'0 0.0
2015-Aug-30 11:33N 26°05' W 080°07'0 0.0
2015-Aug-30 10:30N 26°05' W 080°07'0 0.0
2015-Aug-30 09:33N 26°05' W 080°07'4 4.2
2015-Aug-30 08:34N 26°05' W 080°03'8 8.4
2015-Aug-30 07:34N 25°57' W 079°59'1313.0
2015-Aug-30 06:34N 25°44' W 079°59'1413.7
2015-Aug-30 05:34N 25°31' W 079°58'49016.9
2015-Aug-29 00:33N 20°30' W 086°59'1 1.4
2015-Aug-28 23:31N 20°29' W 086°59'0 0.0
2015-Aug-28 22:31N 20°29' W 086°59'0 0.0
2015-Aug-28 21:31N 20°29' W 086°59'0 0.0
2015-Aug-28 20:10N 20°29' W 086°59'0 0.0
2015-Aug-28 19:31N 20°29' W 086°59'0 0.0
2015-Aug-28 17:25N 20°29' W 086°59'0 0.0
2015-Aug-28 16:28N 20°29' W 086°59'0 0.0
2015-Aug-28 15:31N 20°29' W 086°59'0 0.2
2015-Aug-28 14:34N 20°29' W 086°59'  

Dump ship's entire track history